sensor_id;sensor_type;location;lat;lon;timestamp;P1;durP1;ratioP1;P2;durP2;ratioP2
146;SDS011;45999;48.808;9.182;2023-06-01T00:00:32;5.23;;;2.50;;
146;SDS011;45999;48.808;9.182;2023-06-01T00:02:58;3.73;;;2.77;;
146;SDS011;45999;48.808;9.182;2023-06-01T00:05:25;3.77;;;2.47;;
146;SDS011;45999;48.808;9.182;2023-06-01T00:07:51;5.23;;;2.93;;
146;SDS011;45999;48.808;9.182;2023-06-01T00:10:17;6.17;;;2.83;;
146;SDS011;45999;48.808;9.182;2023-06-01T00:12:44;4.20;;;2.60;;
146;SDS011;45999;48.808;9.182;2023-06-01T00:15:10;5.37;;;2.83;;
146;SDS011;45999;48.808;9.182;2023-06-01T00:17:37;4.30;;;2.60;;
146;SDS011;45999;48.808;9.182;2023-06-01T00:20:03;4.97;;;2.93;;
146;SDS011;45999;48.808;9.182;2023-06-01T00:22:33;6.50;;;3.00;;
146;SDS011;45999;48.808;9.182;2023-06-01T00:25:03;4.40;;;2.70;;
146;SDS011;45999;48.808;9.182;2023-06-01T00:27:33;4.63;;;2.77;;
146;SDS011;45999;48.808;9.182;2023-06-01T00:29:59;5.40;;;2.93;;
146;SDS011;45999;48.808;9.182;2023-06-01T00:32:25;4.53;;;3.10;;
146;SDS011;45999;48.808;9.182;2023-06-01T00:34:52;3.90;;;2.87;;
146;SDS011;45999;48.808;9.182;2023-06-01T00:37:18;4.20;;;2.40;;
146;SDS011;45999;48.808;9.182;2023-06-01T00:39:45;5.93;;;3.03;;
146;SDS011;45999;48.808;9.182;2023-06-01T00:42:11;6.47;;;3.30;;
146;SDS011;45999;48.808;9.182;2023-06-01T00:44:37;6.93;;;3.03;;
146;SDS011;45999;48.808;9.182;2023-06-01T00:47:04;4.97;;;2.90;;
146;SDS011;45999;48.808;9.182;2023-06-01T00:49:31;3.80;;;2.73;;
146;SDS011;45999;48.808;9.182;2023-06-01T00:51:57;3.60;;;2.80;;
146;SDS011;45999;48.808;9.182;2023-06-01T00:54:23;3.03;;;2.43;;
146;SDS011;45999;48.808;9.182;2023-06-01T00:56:50;4.57;;;2.60;;
146;SDS011;45999;48.808;9.182;2023-06-01T00:59:16;5.00;;;3.10;;
146;SDS011;45999;48.808;9.182;2023-06-01T01:01:43;5.27;;;2.90;;
146;SDS011;45999;48.808;9.182;2023-06-01T01:04:09;5.33;;;3.27;;
146;SDS011;45999;48.808;9.182;2023-06-01T01:07:00;5.97;;;3.10;;
146;SDS011;45999;48.808;9.182;2023-06-01T01:12:34;3.90;;;2.87;;
146;SDS011;45999;48.808;9.182;2023-06-01T01:15:29;4.53;;;3.07;;
146;SDS011;45999;48.808;9.182;2023-06-01T01:18:06;6.13;;;2.90;;
146;SDS011;45999;48.808;9.182;2023-06-01T01:20:41;4.27;;;2.80;;
146;SDS011;45999;48.808;9.182;2023-06-01T01:28:51;4.33;;;2.93;;
146;SDS011;45999;48.808;9.182;2023-06-01T01:31:23;4.97;;;2.77;;
146;SDS011;45999;48.808;9.182;2023-06-01T01:33:51;6.13;;;2.87;;
146;SDS011;45999;48.808;9.182;2023-06-01T01:36:20;5.20;;;2.63;;
146;SDS011;45999;48.808;9.182;2023-06-01T01:38:47;5.07;;;2.90;;
146;SDS011;45999;48.808;9.182;2023-06-01T01:41:14;4.53;;;2.80;;
146;SDS011;45999;48.808;9.182;2023-06-01T01:43:41;7.67;;;2.80;;
146;SDS011;45999;48.808;9.182;2023-06-01T01:54:20;6.77;;;3.00;;
146;SDS011;45999;48.808;9.182;2023-06-01T01:56:47;6.50;;;3.10;;
146;SDS011;45999;48.808;9.182;2023-06-01T01:59:16;7.50;;;2.93;;
146;SDS011;45999;48.808;9.182;2023-06-01T02:01:44;4.57;;;2.93;;
146;SDS011;45999;48.808;9.182;2023-06-01T02:04:10;7.03;;;2.83;;
146;SDS011;45999;48.808;9.182;2023-06-01T02:06:37;4.40;;;2.90;;
146;SDS011;45999;48.808;9.182;2023-06-01T02:09:03;3.87;;;2.70;;
146;SDS011;45999;48.808;9.182;2023-06-01T02:11:31;6.00;;;3.30;;
146;SDS011;45999;48.808;9.182;2023-06-01T02:13:58;8.37;;;2.80;;
146;SDS011;45999;48.808;9.182;2023-06-01T02:16:25;5.17;;;2.87;;
146;SDS011;45999;48.808;9.182;2023-06-01T02:18:51;4.47;;;2.83;;
146;SDS011;45999;48.808;9.182;2023-06-01T02:21:18;5.33;;;2.90;;
146;SDS011;45999;48.808;9.182;2023-06-01T02:23:44;5.43;;;2.77;;
146;SDS011;45999;48.808;9.182;2023-06-01T02:26:11;4.77;;;2.53;;
146;SDS011;45999;48.808;9.182;2023-06-01T02:28:37;6.00;;;2.33;;
146;SDS011;45999;48.808;9.182;2023-06-01T02:31:05;5.90;;;3.10;;
146;SDS011;45999;48.808;9.182;2023-06-01T02:33:32;3.47;;;3.00;;
146;SDS011;45999;48.808;9.182;2023-06-01T02:35:59;7.17;;;2.63;;
146;SDS011;45999;48.808;9.182;2023-06-01T02:38:26;4.27;;;2.43;;
146;SDS011;45999;48.808;9.182;2023-06-01T02:40:53;4.80;;;2.80;;
146;SDS011;45999;48.808;9.182;2023-06-01T02:43:19;4.97;;;2.90;;
146;SDS011;45999;48.808;9.182;2023-06-01T02:45:46;5.93;;;3.23;;
146;SDS011;45999;48.808;9.182;2023-06-01T02:48:12;4.67;;;3.00;;
146;SDS011;45999;48.808;9.182;2023-06-01T02:50:39;6.70;;;2.70;;
146;SDS011;45999;48.808;9.182;2023-06-01T02:53:05;4.63;;;2.70;;
146;SDS011;45999;48.808;9.182;2023-06-01T02:55:32;4.30;;;2.43;;
146;SDS011;45999;48.808;9.182;2023-06-01T02:57:58;3.90;;;2.90;;
146;SDS011;45999;48.808;9.182;2023-06-01T03:00:25;3.70;;;2.67;;
146;SDS011;45999;48.808;9.182;2023-06-01T03:02:52;5.83;;;2.53;;
146;SDS011;45999;48.808;9.182;2023-06-01T03:05:18;4.60;;;2.60;;
146;SDS011;45999;48.808;9.182;2023-06-01T03:07:46;4.10;;;2.87;;
146;SDS011;45999;48.808;9.182;2023-06-01T03:10:13;5.40;;;2.47;;
146;SDS011;45999;48.808;9.182;2023-06-01T03:12:39;5.87;;;2.80;;
146;SDS011;45999;48.808;9.182;2023-06-01T03:15:06;6.43;;;2.90;;
146;SDS011;45999;48.808;9.182;2023-06-01T03:17:32;6.90;;;2.90;;
146;SDS011;45999;48.808;9.182;2023-06-01T03:19:59;3.93;;;2.50;;
146;SDS011;45999;48.808;9.182;2023-06-01T03:22:25;4.40;;;2.97;;
146;SDS011;45999;48.808;9.182;2023-06-01T03:24:52;3.63;;;2.73;;
146;SDS011;45999;48.808;9.182;2023-06-01T03:27:19;5.97;;;2.83;;
146;SDS011;45999;48.808;9.182;2023-06-01T03:29:46;4.67;;;2.80;;
146;SDS011;45999;48.808;9.182;2023-06-01T03:32:13;3.77;;;2.27;;
146;SDS011;45999;48.808;9.182;2023-06-01T03:34:39;5.87;;;2.97;;
146;SDS011;45999;48.808;9.182;2023-06-01T03:37:06;6.33;;;3.20;;
146;SDS011;45999;48.808;9.182;2023-06-01T03:39:33;5.30;;;2.77;;
146;SDS011;45999;48.808;9.182;2023-06-01T03:42:00;3.83;;;2.97;;
146;SDS011;45999;48.808;9.182;2023-06-01T03:44:27;5.60;;;2.40;;
146;SDS011;45999;48.808;9.182;2023-06-01T03:46:53;5.23;;;2.77;;
146;SDS011;45999;48.808;9.182;2023-06-01T03:49:20;5.00;;;2.60;;
146;SDS011;45999;48.808;9.182;2023-06-01T03:51:46;3.73;;;2.80;;
146;SDS011;45999;48.808;9.182;2023-06-01T03:54:12;3.87;;;2.40;;
146;SDS011;45999;48.808;9.182;2023-06-01T03:56:39;6.03;;;2.40;;
146;SDS011;45999;48.808;9.182;2023-06-01T03:59:06;5.77;;;2.73;;
146;SDS011;45999;48.808;9.182;2023-06-01T04:01:35;5.50;;;2.40;;
146;SDS011;45999;48.808;9.182;2023-06-01T04:04:04;5.20;;;2.67;;
146;SDS011;45999;48.808;9.182;2023-06-01T04:06:33;3.13;;;2.40;;
146;SDS011;45999;48.808;9.182;2023-06-01T04:09:01;7.87;;;2.57;;
146;SDS011;45999;48.808;9.182;2023-06-01T04:11:34;5.03;;;2.80;;
146;SDS011;45999;48.808;9.182;2023-06-01T04:14:01;5.47;;;2.53;;
146;SDS011;45999;48.808;9.182;2023-06-01T04:16:27;3.17;;;2.50;;
146;SDS011;45999;48.808;9.182;2023-06-01T04:18:54;5.57;;;2.93;;
146;SDS011;45999;48.808;9.182;2023-06-01T04:21:20;5.33;;;2.70;;
146;SDS011;45999;48.808;9.182;2023-06-01T04:23:48;4.67;;;2.80;;
146;SDS011;45999;48.808;9.182;2023-06-01T04:26:15;5.03;;;2.80;;
146;SDS011;45999;48.808;9.182;2023-06-01T04:28:43;4.83;;;2.90;;
146;SDS011;45999;48.808;9.182;2023-06-01T04:31:10;3.33;;;2.60;;
146;SDS011;45999;48.808;9.182;2023-06-01T04:33:41;3.37;;;2.60;;
146;SDS011;45999;48.808;9.182;2023-06-01T04:36:17;6.10;;;2.83;;
146;SDS011;45999;48.808;9.182;2023-06-01T04:38:47;5.80;;;3.37;;
146;SDS011;45999;48.808;9.182;2023-06-01T04:41:17;4.40;;;2.50;;
146;SDS011;45999;48.808;9.182;2023-06-01T04:43:45;5.67;;;2.80;;
146;SDS011;45999;48.808;9.182;2023-06-01T04:46:17;3.80;;;2.67;;
146;SDS011;45999;48.808;9.182;2023-06-01T04:48:48;5.23;;;2.90;;
146;SDS011;45999;48.808;9.182;2023-06-01T04:51:16;5.83;;;2.93;;
146;SDS011;45999;48.808;9.182;2023-06-01T04:53:44;6.93;;;2.83;;
146;SDS011;45999;48.808;9.182;2023-06-01T04:56:17;4.27;;;2.57;;
146;SDS011;45999;48.808;9.182;2023-06-01T04:58:45;5.23;;;3.03;;
146;SDS011;45999;48.808;9.182;2023-06-01T05:01:15;6.30;;;2.90;;
146;SDS011;45999;48.808;9.182;2023-06-01T05:03:43;5.80;;;2.97;;
146;SDS011;45999;48.808;9.182;2023-06-01T05:06:10;6.47;;;2.60;;
146;SDS011;45999;48.808;9.182;2023-06-01T05:08:38;4.53;;;2.97;;
146;SDS011;45999;48.808;9.182;2023-06-01T05:11:05;6.63;;;2.80;;
146;SDS011;45999;48.808;9.182;2023-06-01T05:13:35;5.30;;;2.67;;
146;SDS011;45999;48.808;9.182;2023-06-01T05:16:03;5.60;;;3.43;;
146;SDS011;45999;48.808;9.182;2023-06-01T05:18:31;5.47;;;2.70;;
146;SDS011;45999;48.808;9.182;2023-06-01T05:20:58;7.03;;;2.83;;
146;SDS011;45999;48.808;9.182;2023-06-01T05:23:26;4.77;;;2.60;;
146;SDS011;45999;48.808;9.182;2023-06-01T05:25:53;9.87;;;2.97;;
146;SDS011;45999;48.808;9.182;2023-06-01T05:28:26;6.80;;;2.73;;
146;SDS011;45999;48.808;9.182;2023-06-01T05:30:53;6.73;;;2.97;;
146;SDS011;45999;48.808;9.182;2023-06-01T05:33:19;4.83;;;3.40;;
146;SDS011;45999;48.808;9.182;2023-06-01T05:35:46;7.67;;;3.13;;
146;SDS011;45999;48.808;9.182;2023-06-01T05:38:12;7.50;;;3.30;;
146;SDS011;45999;48.808;9.182;2023-06-01T05:40:38;6.70;;;3.00;;
146;SDS011;45999;48.808;9.182;2023-06-01T05:43:05;10.77;;;3.40;;
146;SDS011;45999;48.808;9.182;2023-06-01T05:45:32;8.30;;;3.10;;
146;SDS011;45999;48.808;9.182;2023-06-01T05:47:59;6.87;;;3.30;;
146;SDS011;45999;48.808;9.182;2023-06-01T05:50:25;5.23;;;3.10;;
146;SDS011;45999;48.808;9.182;2023-06-01T05:52:52;6.93;;;3.30;;
146;SDS011;45999;48.808;9.182;2023-06-01T05:55:18;7.23;;;3.10;;
146;SDS011;45999;48.808;9.182;2023-06-01T05:57:45;7.87;;;3.50;;
146;SDS011;45999;48.808;9.182;2023-06-01T06:00:12;5.13;;;3.10;;
146;SDS011;45999;48.808;9.182;2023-06-01T06:02:40;5.13;;;3.57;;
146;SDS011;45999;48.808;9.182;2023-06-01T06:05:08;6.57;;;3.37;;
146;SDS011;45999;48.808;9.182;2023-06-01T06:07:34;5.30;;;3.50;;
146;SDS011;45999;48.808;9.182;2023-06-01T06:10:02;6.47;;;3.20;;
146;SDS011;45999;48.808;9.182;2023-06-01T06:12:29;6.27;;;3.37;;
146;SDS011;45999;48.808;9.182;2023-06-01T06:14:55;7.30;;;3.30;;
146;SDS011;45999;48.808;9.182;2023-06-01T06:17:21;5.93;;;3.43;;
146;SDS011;45999;48.808;9.182;2023-06-01T06:19:48;5.33;;;3.43;;
146;SDS011;45999;48.808;9.182;2023-06-01T06:22:14;6.70;;;3.57;;
146;SDS011;45999;48.808;9.182;2023-06-01T06:24:41;7.00;;;3.67;;
146;SDS011;45999;48.808;9.182;2023-06-01T06:27:08;5.40;;;3.43;;
146;SDS011;45999;48.808;9.182;2023-06-01T06:29:35;9.40;;;3.53;;
146;SDS011;45999;48.808;9.182;2023-06-01T06:32:01;5.87;;;3.10;;
146;SDS011;45999;48.808;9.182;2023-06-01T06:34:28;5.03;;;3.13;;
146;SDS011;45999;48.808;9.182;2023-06-01T06:37:00;7.13;;;3.17;;
146;SDS011;45999;48.808;9.182;2023-06-01T06:39:27;5.33;;;3.37;;
146;SDS011;45999;48.808;9.182;2023-06-01T06:41:53;6.47;;;3.13;;
146;SDS011;45999;48.808;9.182;2023-06-01T06:44:20;6.13;;;3.23;;
146;SDS011;45999;48.808;9.182;2023-06-01T06:46:46;10.07;;;3.20;;
146;SDS011;45999;48.808;9.182;2023-06-01T06:52:04;8.67;;;3.17;;
146;SDS011;45999;48.808;9.182;2023-06-01T06:54:31;5.57;;;2.97;;
146;SDS011;45999;48.808;9.182;2023-06-01T06:56:57;5.37;;;2.97;;
146;SDS011;45999;48.808;9.182;2023-06-01T06:59:23;6.60;;;3.20;;
146;SDS011;45999;48.808;9.182;2023-06-01T07:01:50;5.90;;;3.00;;
146;SDS011;45999;48.808;9.182;2023-06-01T07:04:16;4.67;;;3.20;;
146;SDS011;45999;48.808;9.182;2023-06-01T07:06:42;8.70;;;3.20;;
146;SDS011;45999;48.808;9.182;2023-06-01T07:09:09;7.43;;;3.03;;
146;SDS011;45999;48.808;9.182;2023-06-01T07:11:36;4.60;;;3.30;;
146;SDS011;45999;48.808;9.182;2023-06-01T07:14:02;5.67;;;3.40;;
146;SDS011;45999;48.808;9.182;2023-06-01T07:16:28;6.60;;;3.33;;
146;SDS011;45999;48.808;9.182;2023-06-01T07:18:55;4.07;;;3.23;;
146;SDS011;45999;48.808;9.182;2023-06-01T07:21:22;6.60;;;3.00;;
146;SDS011;45999;48.808;9.182;2023-06-01T07:23:48;5.97;;;3.30;;
146;SDS011;45999;48.808;9.182;2023-06-01T07:26:15;7.50;;;3.40;;
146;SDS011;45999;48.808;9.182;2023-06-01T07:28:41;4.83;;;3.30;;
146;SDS011;45999;48.808;9.182;2023-06-01T07:31:07;6.30;;;3.63;;
146;SDS011;45999;48.808;9.182;2023-06-01T07:33:34;6.70;;;3.60;;
146;SDS011;45999;48.808;9.182;2023-06-01T07:36:02;5.53;;;3.30;;
146;SDS011;45999;48.808;9.182;2023-06-01T07:38:29;4.30;;;3.43;;
146;SDS011;45999;48.808;9.182;2023-06-01T07:40:56;5.10;;;3.53;;
146;SDS011;45999;48.808;9.182;2023-06-01T07:43:22;4.80;;;3.20;;
146;SDS011;45999;48.808;9.182;2023-06-01T07:45:48;8.27;;;3.30;;
146;SDS011;45999;48.808;9.182;2023-06-01T07:48:15;4.13;;;3.07;;
146;SDS011;45999;48.808;9.182;2023-06-01T07:50:41;4.43;;;3.03;;
146;SDS011;45999;48.808;9.182;2023-06-01T07:53:08;4.50;;;3.60;;
146;SDS011;45999;48.808;9.182;2023-06-01T07:55:34;6.13;;;3.27;;
146;SDS011;45999;48.808;9.182;2023-06-01T07:58:01;6.60;;;3.67;;
146;SDS011;45999;48.808;9.182;2023-06-01T08:00:29;4.27;;;3.37;;
146;SDS011;45999;48.808;9.182;2023-06-01T08:02:55;4.40;;;3.47;;
146;SDS011;45999;48.808;9.182;2023-06-01T08:05:22;6.17;;;2.90;;
146;SDS011;45999;48.808;9.182;2023-06-01T08:07:48;5.33;;;3.10;;
146;SDS011;45999;48.808;9.182;2023-06-01T08:10:15;5.07;;;3.13;;
146;SDS011;45999;48.808;9.182;2023-06-01T08:12:41;5.70;;;3.73;;
146;SDS011;45999;48.808;9.182;2023-06-01T08:15:08;7.47;;;3.43;;
146;SDS011;45999;48.808;9.182;2023-06-01T08:17:36;7.57;;;3.73;;
146;SDS011;45999;48.808;9.182;2023-06-01T08:20:03;7.33;;;3.63;;
146;SDS011;45999;48.808;9.182;2023-06-01T08:22:35;5.43;;;3.40;;
146;SDS011;45999;48.808;9.182;2023-06-01T08:25:01;4.17;;;3.50;;
146;SDS011;45999;48.808;9.182;2023-06-01T08:27:28;4.70;;;3.30;;
146;SDS011;45999;48.808;9.182;2023-06-01T08:29:55;6.47;;;3.70;;
146;SDS011;45999;48.808;9.182;2023-06-01T08:32:21;4.23;;;3.50;;
146;SDS011;45999;48.808;9.182;2023-06-01T08:34:48;7.07;;;3.50;;
146;SDS011;45999;48.808;9.182;2023-06-01T08:37:14;6.50;;;3.70;;
146;SDS011;45999;48.808;9.182;2023-06-01T08:39:41;4.57;;;3.53;;
146;SDS011;45999;48.808;9.182;2023-06-01T08:44:41;5.13;;;3.67;;
146;SDS011;45999;48.808;9.182;2023-06-01T08:47:08;6.47;;;3.97;;
146;SDS011;45999;48.808;9.182;2023-06-01T08:49:36;7.80;;;3.80;;
146;SDS011;45999;48.808;9.182;2023-06-01T08:52:07;5.03;;;4.13;;
146;SDS011;45999;48.808;9.182;2023-06-01T08:54:37;5.45;;;3.72;;
146;SDS011;45999;48.808;9.182;2023-06-01T08:57:09;7.00;;;4.18;;
146;SDS011;45999;48.808;9.182;2023-06-01T08:59:38;6.17;;;3.93;;
146;SDS011;45999;48.808;9.182;2023-06-01T09:02:05;4.82;;;3.65;;
146;SDS011;45999;48.808;9.182;2023-06-01T09:04:32;8.10;;;4.10;;
146;SDS011;45999;48.808;9.182;2023-06-01T09:07:02;4.57;;;4.03;;
146;SDS011;45999;48.808;9.182;2023-06-01T09:09:29;5.85;;;3.55;;
146;SDS011;45999;48.808;9.182;2023-06-01T09:14:44;7.25;;;3.75;;
146;SDS011;45999;48.808;9.182;2023-06-01T09:17:20;7.68;;;4.00;;
146;SDS011;45999;48.808;9.182;2023-06-01T09:19:49;5.55;;;3.63;;
146;SDS011;45999;48.808;9.182;2023-06-01T09:22:21;7.30;;;4.13;;
146;SDS011;45999;48.808;9.182;2023-06-01T09:24:55;5.65;;;3.95;;
146;SDS011;45999;48.808;9.182;2023-06-01T09:27:23;5.78;;;3.83;;
146;SDS011;45999;48.808;9.182;2023-06-01T09:29:54;7.30;;;3.80;;
146;SDS011;45999;48.808;9.182;2023-06-01T09:32:21;7.20;;;3.80;;
146;SDS011;45999;48.808;9.182;2023-06-01T09:34:49;6.75;;;4.25;;
146;SDS011;45999;48.808;9.182;2023-06-01T09:37:15;5.18;;;4.07;;
146;SDS011;45999;48.808;9.182;2023-06-01T09:39:42;5.10;;;3.60;;
146;SDS011;45999;48.808;9.182;2023-06-01T09:42:09;7.82;;;4.25;;
146;SDS011;45999;48.808;9.182;2023-06-01T09:44:39;6.10;;;4.15;;
146;SDS011;45999;48.808;9.182;2023-06-01T09:47:10;5.43;;;4.15;;
146;SDS011;45999;48.808;9.182;2023-06-01T09:57:12;5.40;;;3.85;;
146;SDS011;45999;48.808;9.182;2023-06-01T09:59:40;6.50;;;4.30;;
146;SDS011;45999;48.808;9.182;2023-06-01T10:02:14;6.38;;;3.85;;
146;SDS011;45999;48.808;9.182;2023-06-01T10:04:50;6.97;;;4.00;;
146;SDS011;45999;48.808;9.182;2023-06-01T10:07:18;6.63;;;4.35;;
146;SDS011;45999;48.808;9.182;2023-06-01T10:09:50;7.25;;;4.70;;
146;SDS011;45999;48.808;9.182;2023-06-01T10:12:17;6.45;;;4.13;;
146;SDS011;45999;48.808;9.182;2023-06-01T10:14:44;5.78;;;4.03;;
146;SDS011;45999;48.808;9.182;2023-06-01T10:17:11;5.72;;;4.20;;
146;SDS011;45999;48.808;9.182;2023-06-01T10:19:39;8.07;;;4.20;;
146;SDS011;45999;48.808;9.182;2023-06-01T10:22:06;5.07;;;4.00;;
146;SDS011;45999;48.808;9.182;2023-06-01T10:24:34;5.53;;;3.90;;
146;SDS011;45999;48.808;9.182;2023-06-01T10:27:19;11.38;;;5.45;;
146;SDS011;45999;48.808;9.182;2023-06-01T10:29:48;6.85;;;4.30;;
146;SDS011;45999;48.808;9.182;2023-06-01T10:35:03;6.72;;;4.40;;
146;SDS011;45999;48.808;9.182;2023-06-01T10:37:30;7.25;;;4.30;;
146;SDS011;45999;48.808;9.182;2023-06-01T10:42:41;4.20;;;3.78;;
146;SDS011;45999;48.808;9.182;2023-06-01T10:45:35;5.57;;;4.10;;
146;SDS011;45999;48.808;9.182;2023-06-01T10:48:01;5.95;;;4.20;;
146;SDS011;45999;48.808;9.182;2023-06-01T10:50:28;4.60;;;4.07;;
146;SDS011;45999;48.808;9.182;2023-06-01T10:52:55;4.53;;;4.13;;
146;SDS011;45999;48.808;9.182;2023-06-01T10:55:23;5.68;;;3.88;;
146;SDS011;45999;48.808;9.182;2023-06-01T11:00:48;9.45;;;3.78;;
146;SDS011;45999;48.808;9.182;2023-06-01T11:03:15;8.60;;;3.90;;
146;SDS011;45999;48.808;9.182;2023-06-01T11:05:46;4.68;;;4.03;;
146;SDS011;45999;48.808;9.182;2023-06-01T11:21:08;5.72;;;4.45;;
146;SDS011;45999;48.808;9.182;2023-06-01T11:23:36;4.32;;;3.90;;
146;SDS011;45999;48.808;9.182;2023-06-01T11:26:07;9.63;;;4.55;;
146;SDS011;45999;48.808;9.182;2023-06-01T11:28:34;7.07;;;3.88;;
146;SDS011;45999;48.808;9.182;2023-06-01T11:31:01;6.47;;;3.95;;
146;SDS011;45999;48.808;9.182;2023-06-01T11:33:29;5.07;;;3.60;;
146;SDS011;45999;48.808;9.182;2023-06-01T11:35:58;6.43;;;3.58;;
146;SDS011;45999;48.808;9.182;2023-06-01T11:38:33;6.20;;;4.05;;
146;SDS011;45999;48.808;9.182;2023-06-01T11:41:03;6.13;;;4.45;;
146;SDS011;45999;48.808;9.182;2023-06-01T11:43:31;4.97;;;3.85;;
146;SDS011;45999;48.808;9.182;2023-06-01T11:46:01;5.50;;;3.78;;
146;SDS011;45999;48.808;9.182;2023-06-01T11:48:28;5.65;;;3.70;;
146;SDS011;45999;48.808;9.182;2023-06-01T11:50:55;4.65;;;4.03;;
146;SDS011;45999;48.808;9.182;2023-06-01T11:53:22;4.85;;;3.88;;
146;SDS011;45999;48.808;9.182;2023-06-01T11:58:23;3.65;;;3.33;;
146;SDS011;45999;48.808;9.182;2023-06-01T12:00:51;6.00;;;3.70;;
146;SDS011;45999;48.808;9.182;2023-06-01T12:03:17;3.95;;;3.20;;
146;SDS011;45999;48.808;9.182;2023-06-01T12:05:44;5.05;;;4.10;;
146;SDS011;45999;48.808;9.182;2023-06-01T12:08:13;6.93;;;3.55;;
146;SDS011;45999;48.808;9.182;2023-06-01T12:10:41;7.90;;;3.47;;
146;SDS011;45999;48.808;9.182;2023-06-01T12:13:10;4.53;;;3.45;;
146;SDS011;45999;48.808;9.182;2023-06-01T12:15:37;5.43;;;3.63;;
146;SDS011;45999;48.808;9.182;2023-06-01T12:18:04;4.47;;;4.03;;
146;SDS011;45999;48.808;9.182;2023-06-01T12:20:40;4.20;;;3.78;;
146;SDS011;45999;48.808;9.182;2023-06-01T12:25:54;6.93;;;3.78;;
146;SDS011;45999;48.808;9.182;2023-06-01T12:28:24;6.55;;;3.95;;
146;SDS011;45999;48.808;9.182;2023-06-01T12:31:09;5.90;;;3.60;;
146;SDS011;45999;48.808;9.182;2023-06-01T12:33:38;5.38;;;3.70;;
146;SDS011;45999;48.808;9.182;2023-06-01T12:36:05;7.63;;;4.22;;
146;SDS011;45999;48.808;9.182;2023-06-01T12:38:37;5.20;;;3.65;;
146;SDS011;45999;48.808;9.182;2023-06-01T12:41:15;5.80;;;3.50;;
146;SDS011;45999;48.808;9.182;2023-06-01T12:43:45;7.28;;;4.32;;
146;SDS011;45999;48.808;9.182;2023-06-01T12:48:47;6.20;;;3.92;;
146;SDS011;45999;48.808;9.182;2023-06-01T12:51:14;6.07;;;3.90;;
146;SDS011;45999;48.808;9.182;2023-06-01T12:53:41;5.28;;;3.47;;
146;SDS011;45999;48.808;9.182;2023-06-01T12:56:08;7.43;;;3.53;;
146;SDS011;45999;48.808;9.182;2023-06-01T12:58:35;4.82;;;4.03;;
146;SDS011;45999;48.808;9.182;2023-06-01T13:01:01;7.47;;;3.85;;
146;SDS011;45999;48.808;9.182;2023-06-01T13:03:28;5.28;;;4.30;;
146;SDS011;45999;48.808;9.182;2023-06-01T13:05:55;8.88;;;4.13;;
146;SDS011;45999;48.808;9.182;2023-06-01T13:08:21;4.70;;;3.85;;
146;SDS011;45999;48.808;9.182;2023-06-01T13:10:48;5.13;;;3.92;;
146;SDS011;45999;48.808;9.182;2023-06-01T13:13:15;5.15;;;3.53;;
146;SDS011;45999;48.808;9.182;2023-06-01T13:15:42;4.63;;;3.78;;
146;SDS011;45999;48.808;9.182;2023-06-01T13:18:09;6.80;;;3.63;;
146;SDS011;45999;48.808;9.182;2023-06-01T13:20:36;8.10;;;3.75;;
146;SDS011;45999;48.808;9.182;2023-06-01T13:23:04;5.85;;;4.00;;
146;SDS011;45999;48.808;9.182;2023-06-01T13:25:31;5.93;;;3.58;;
146;SDS011;45999;48.808;9.182;2023-06-01T13:27:59;5.20;;;3.80;;
146;SDS011;45999;48.808;9.182;2023-06-01T13:30:26;4.80;;;3.65;;
146;SDS011;45999;48.808;9.182;2023-06-01T13:32:55;4.75;;;3.28;;
146;SDS011;45999;48.808;9.182;2023-06-01T13:35:22;6.43;;;3.30;;
146;SDS011;45999;48.808;9.182;2023-06-01T13:37:49;7.15;;;3.50;;
146;SDS011;45999;48.808;9.182;2023-06-01T13:40:15;4.22;;;3.50;;
146;SDS011;45999;48.808;9.182;2023-06-01T13:42:43;5.70;;;3.33;;
146;SDS011;45999;48.808;9.182;2023-06-01T13:45:10;4.78;;;3.28;;
146;SDS011;45999;48.808;9.182;2023-06-01T13:47:37;5.03;;;3.60;;
146;SDS011;45999;48.808;9.182;2023-06-01T13:50:03;6.20;;;3.50;;
146;SDS011;45999;48.808;9.182;2023-06-01T13:52:30;4.70;;;3.63;;
146;SDS011;45999;48.808;9.182;2023-06-01T13:54:57;4.15;;;2.90;;
146;SDS011;45999;48.808;9.182;2023-06-01T13:57:23;6.13;;;3.40;;
146;SDS011;45999;48.808;9.182;2023-06-01T13:59:49;4.22;;;3.10;;
146;SDS011;45999;48.808;9.182;2023-06-01T14:02:16;5.00;;;2.83;;
146;SDS011;45999;48.808;9.182;2023-06-01T14:04:42;2.95;;;2.67;;
146;SDS011;45999;48.808;9.182;2023-06-01T14:07:09;3.70;;;3.00;;
146;SDS011;45999;48.808;9.182;2023-06-01T14:09:36;4.30;;;2.88;;
146;SDS011;45999;48.808;9.182;2023-06-01T14:12:02;4.13;;;2.75;;
146;SDS011;45999;48.808;9.182;2023-06-01T14:14:28;3.13;;;2.38;;
146;SDS011;45999;48.808;9.182;2023-06-01T14:16:55;4.50;;;2.97;;
146;SDS011;45999;48.808;9.182;2023-06-01T14:19:21;4.60;;;3.05;;
146;SDS011;45999;48.808;9.182;2023-06-01T14:21:48;4.20;;;2.42;;
146;SDS011;45999;48.808;9.182;2023-06-01T14:24:14;3.70;;;2.60;;
146;SDS011;45999;48.808;9.182;2023-06-01T14:26:40;3.90;;;2.70;;
146;SDS011;45999;48.808;9.182;2023-06-01T14:29:07;4.55;;;2.60;;
146;SDS011;45999;48.808;9.182;2023-06-01T14:31:33;4.68;;;2.50;;
146;SDS011;45999;48.808;9.182;2023-06-01T14:33:59;4.20;;;3.00;;
146;SDS011;45999;48.808;9.182;2023-06-01T14:36:26;2.85;;;2.60;;
146;SDS011;45999;48.808;9.182;2023-06-01T14:38:52;6.25;;;3.15;;
146;SDS011;45999;48.808;9.182;2023-06-01T14:41:18;6.55;;;2.80;;
146;SDS011;45999;48.808;9.182;2023-06-01T14:43:45;5.40;;;2.40;;
146;SDS011;45999;48.808;9.182;2023-06-01T14:46:11;3.75;;;2.40;;
146;SDS011;45999;48.808;9.182;2023-06-01T14:48:38;5.32;;;2.40;;
146;SDS011;45999;48.808;9.182;2023-06-01T14:51:04;2.97;;;2.33;;
146;SDS011;45999;48.808;9.182;2023-06-01T14:53:30;2.60;;;2.40;;
146;SDS011;45999;48.808;9.182;2023-06-01T14:55:57;2.55;;;2.35;;
146;SDS011;45999;48.808;9.182;2023-06-01T14:58:23;4.07;;;2.97;;
146;SDS011;45999;48.808;9.182;2023-06-01T15:00:49;7.25;;;2.85;;
146;SDS011;45999;48.808;9.182;2023-06-01T15:03:16;4.65;;;2.60;;
146;SDS011;45999;48.808;9.182;2023-06-01T15:05:43;5.63;;;2.83;;
146;SDS011;45999;48.808;9.182;2023-06-01T15:08:09;5.10;;;2.50;;
146;SDS011;45999;48.808;9.182;2023-06-01T15:10:35;2.83;;;2.45;;
146;SDS011;45999;48.808;9.182;2023-06-01T15:13:02;5.63;;;2.53;;
146;SDS011;45999;48.808;9.182;2023-06-01T15:15:28;3.22;;;2.65;;
146;SDS011;45999;48.808;9.182;2023-06-01T15:17:54;4.18;;;2.40;;
146;SDS011;45999;48.808;9.182;2023-06-01T15:20:21;3.58;;;2.50;;
146;SDS011;45999;48.808;9.182;2023-06-01T15:22:47;2.78;;;2.33;;
146;SDS011;45999;48.808;9.182;2023-06-01T15:25:13;6.35;;;2.40;;
146;SDS011;45999;48.808;9.182;2023-06-01T15:27:40;4.45;;;2.50;;
146;SDS011;45999;48.808;9.182;2023-06-01T15:30:06;3.00;;;2.20;;
146;SDS011;45999;48.808;9.182;2023-06-01T15:32:33;5.15;;;2.40;;
146;SDS011;45999;48.808;9.182;2023-06-01T15:35:00;4.47;;;2.70;;
146;SDS011;45999;48.808;9.182;2023-06-01T15:37:29;5.95;;;2.63;;
146;SDS011;45999;48.808;9.182;2023-06-01T15:39:56;5.15;;;2.85;;
146;SDS011;45999;48.808;9.182;2023-06-01T15:42:22;4.03;;;2.67;;
146;SDS011;45999;48.808;9.182;2023-06-01T15:44:48;2.50;;;2.30;;
146;SDS011;45999;48.808;9.182;2023-06-01T15:47:15;3.92;;;2.72;;
146;SDS011;45999;48.808;9.182;2023-06-01T15:49:41;3.47;;;2.33;;
146;SDS011;45999;48.808;9.182;2023-06-01T15:52:08;4.70;;;2.42;;
146;SDS011;45999;48.808;9.182;2023-06-01T15:54:35;3.25;;;2.40;;
146;SDS011;45999;48.808;9.182;2023-06-01T15:57:02;3.70;;;2.53;;
146;SDS011;45999;48.808;9.182;2023-06-01T15:59:29;4.43;;;2.20;;
146;SDS011;45999;48.808;9.182;2023-06-01T16:01:56;2.88;;;2.25;;
146;SDS011;45999;48.808;9.182;2023-06-01T16:04:22;24.90;;;3.65;;
146;SDS011;45999;48.808;9.182;2023-06-01T16:06:48;4.20;;;2.55;;
146;SDS011;45999;48.808;9.182;2023-06-01T16:09:15;3.55;;;2.22;;
146;SDS011;45999;48.808;9.182;2023-06-01T16:11:41;5.20;;;2.30;;
146;SDS011;45999;48.808;9.182;2023-06-01T16:14:07;1.90;;;1.80;;
146;SDS011;45999;48.808;9.182;2023-06-01T16:16:34;3.42;;;1.90;;
146;SDS011;45999;48.808;9.182;2023-06-01T16:19:00;5.72;;;2.05;;